DLH2NJ EDDF-LSZH
Flight info
| Callsign | DLH2NJ |
|---|---|
| Flight time | 0h 32m |
| Altitude | 23000 |
| Route | ANEKI2L/18 ANEKI Y163 NEKLO Y171 INKAM T725 LAMGO T721 RILAX RILAX2A |
| Aircraft | A319/M-SDE3FGHIRWY/LB1 |
Departure
| Time | 2026-05-05 14:57 |
|---|---|
| Airport | Frankfurt Main Airport (EDDF) |
Arrival
| Time | 2026-05-05 15:29 |
|---|---|
| Airport | Zürich Airport (LSZH) |
| Time | Latitude | Longitude | Altitude | Speed | Heading |
|---|---|---|---|---|---|
| 2026-05-05 14:25 | 50.04402 | 8.56222 | 356 ft | 0 kts | 159° |
| 2026-05-05 14:45 | 50.04420 | 8.56212 | 361 ft | 3 kts | 162° |
| 2026-05-05 14:46 | 50.04441 | 8.56204 | 356 ft | 3 kts | 171° |
| 2026-05-05 14:46 | 50.04461 | 8.56202 | 361 ft | 3 kts | 196° |
| 2026-05-05 14:46 | 50.04476 | 8.56215 | 365 ft | 3 kts | 249° |
| 2026-05-05 14:46 | 50.04472 | 8.56197 | 357 ft | 3 kts | 250° |
| 2026-05-05 14:47 | 50.04464 | 8.56165 | 357 ft | 3 kts | 250° |
| 2026-05-05 14:47 | 50.04457 | 8.56134 | 358 ft | 3 kts | 250° |
| 2026-05-05 14:47 | 50.04453 | 8.56116 | 358 ft | 0 kts | 249° |
| 2026-05-05 14:50 | 50.04453 | 8.56115 | 363 ft | 0 kts | 249° |
| 2026-05-05 14:50 | 50.04446 | 8.56089 | 356 ft | 5 kts | 249° |
| 2026-05-05 14:50 | 50.04418 | 8.56033 | 356 ft | 8 kts | 210° |
| 2026-05-05 14:51 | 50.04358 | 8.56047 | 359 ft | 10 kts | 160° |
| 2026-05-05 14:51 | 50.04295 | 8.56074 | 355 ft | 9 kts | 185° |
| 2026-05-05 14:51 | 50.04255 | 8.56003 | 359 ft | 9 kts | 249° |
| 2026-05-05 14:51 | 50.04232 | 8.55907 | 355 ft | 10 kts | 250° |
| 2026-05-05 14:52 | 50.04207 | 8.55803 | 360 ft | 11 kts | 249° |
| 2026-05-05 14:52 | 50.04178 | 8.55685 | 359 ft | 12 kts | 250° |
| 2026-05-05 14:52 | 50.04146 | 8.55549 | 355 ft | 14 kts | 250° |
| 2026-05-05 14:52 | 50.04123 | 8.55453 | 358 ft | 15 kts | 249° |
| 2026-05-05 14:53 | 50.04087 | 8.55304 | 355 ft | 15 kts | 249° |
| 2026-05-05 14:53 | 50.04052 | 8.55156 | 360 ft | 15 kts | 249° |
| 2026-05-05 14:53 | 50.04015 | 8.55001 | 356 ft | 16 kts | 250° |
| 2026-05-05 14:53 | 50.03974 | 8.54831 | 355 ft | 18 kts | 250° |
| 2026-05-05 14:54 | 50.03928 | 8.54639 | 353 ft | 20 kts | 249° |
| 2026-05-05 14:54 | 50.03878 | 8.54428 | 350 ft | 22 kts | 250° |
| 2026-05-05 14:54 | 50.03803 | 8.54235 | 347 ft | 19 kts | 246° |
| 2026-05-05 14:54 | 50.03760 | 8.54057 | 350 ft | 16 kts | 249° |
| 2026-05-05 14:55 | 50.03722 | 8.53897 | 343 ft | 16 kts | 250° |
| 2026-05-05 14:55 | 50.03680 | 8.53722 | 342 ft | 19 kts | 249° |
| 2026-05-05 14:55 | 50.03630 | 8.53523 | 339 ft | 21 kts | 249° |
| 2026-05-05 14:55 | 50.03576 | 8.53300 | 338 ft | 23 kts | 249° |
| 2026-05-05 14:56 | 50.03518 | 8.53057 | 335 ft | 25 kts | 250° |
| 2026-05-05 14:56 | 50.03459 | 8.52829 | 336 ft | 21 kts | 245° |
| 2026-05-05 14:56 | 50.03408 | 8.52642 | 335 ft | 17 kts | 235° |
| 2026-05-05 14:56 | 50.03317 | 8.52594 | 336 ft | 12 kts | 180° |
| 2026-05-05 14:57 | 50.03206 | 8.52595 | 336 ft | 35 kts | 179° |
| 2026-05-05 14:57 | 50.02705 | 8.52600 | 336 ft | 106 kts | 179° |
| 2026-05-05 14:57 | 50.01767 | 8.52609 | 358 ft | 159 kts | 180° |
| 2026-05-05 14:57 | 50.00656 | 8.52621 | 993 ft | 160 kts | 181° |
| 2026-05-05 14:58 | 49.99539 | 8.52679 | 1726 ft | 164 kts | 180° |
| 2026-05-05 14:58 | 49.98331 | 8.52761 | 2169 ft | 185 kts | 180° |
| 2026-05-05 14:58 | 49.96964 | 8.52852 | 2532 ft | 209 kts | 179° |
| 2026-05-05 14:58 | 49.95445 | 8.52959 | 3194 ft | 223 kts | 179° |
| 2026-05-05 14:59 | 49.93882 | 8.53071 | 4197 ft | 225 kts | 179° |
| 2026-05-05 14:59 | 49.92307 | 8.53181 | 5180 ft | 228 kts | 179° |
| 2026-05-05 14:59 | 49.90713 | 8.53291 | 6154 ft | 230 kts | 179° |
| 2026-05-05 14:59 | 49.89099 | 8.53401 | 7041 ft | 234 kts | 179° |
| 2026-05-05 15:00 | 49.87470 | 8.53513 | 7931 ft | 236 kts | 178° |
| 2026-05-05 15:00 | 49.86379 | 8.53588 | 8513 ft | 238 kts | 178° |
| 2026-05-05 15:00 | 49.84147 | 8.53739 | 9706 ft | 242 kts | 178° |
| 2026-05-05 15:00 | 49.82456 | 8.53853 | 10521 ft | 245 kts | 177° |
| 2026-05-05 15:01 | 49.80742 | 8.53967 | 11328 ft | 248 kts | 177° |
| 2026-05-05 15:01 | 49.79008 | 8.54085 | 12143 ft | 251 kts | 177° |
| 2026-05-05 15:01 | 49.77241 | 8.54033 | 12828 ft | 262 kts | 184° |
| 2026-05-05 15:01 | 49.75346 | 8.53790 | 13138 ft | 285 kts | 184° |
| 2026-05-05 15:02 | 49.73293 | 8.53517 | 13407 ft | 308 kts | 184° |
| 2026-05-05 15:02 | 49.71073 | 8.53217 | 13626 ft | 331 kts | 184° |
| 2026-05-05 15:02 | 49.68728 | 8.52903 | 14046 ft | 344 kts | 184° |
| 2026-05-05 15:02 | 49.66332 | 8.52586 | 14677 ft | 349 kts | 184° |
| 2026-05-05 15:03 | 49.63976 | 8.52273 | 15348 ft | 352 kts | 184° |
| 2026-05-05 15:03 | 49.61529 | 8.51948 | 16040 ft | 355 kts | 184° |
| 2026-05-05 15:03 | 49.59064 | 8.51623 | 16717 ft | 358 kts | 184° |
| 2026-05-05 15:03 | 49.56566 | 8.51291 | 17384 ft | 362 kts | 184° |
| 2026-05-05 15:04 | 49.54099 | 8.50968 | 18031 ft | 366 kts | 184° |
| 2026-05-05 15:04 | 49.51517 | 8.50632 | 18624 ft | 369 kts | 184° |
| 2026-05-05 15:04 | 49.48947 | 8.50295 | 19214 ft | 372 kts | 184° |
| 2026-05-05 15:04 | 49.46394 | 8.49960 | 19809 ft | 375 kts | 184° |
| 2026-05-05 15:05 | 49.41157 | 8.49273 | 20968 ft | 381 kts | 185° |
| 2026-05-05 15:05 | 49.38514 | 8.48925 | 21188 ft | 381 kts | 185° |
| 2026-05-05 15:05 | 49.35868 | 8.48578 | 21447 ft | 382 kts | 185° |
| 2026-05-05 15:06 | 49.33215 | 8.48247 | 21709 ft | 383 kts | 183° |
| 2026-05-05 15:06 | 49.30580 | 8.48359 | 21966 ft | 385 kts | 173° |
| 2026-05-05 15:06 | 49.28024 | 8.49168 | 22226 ft | 387 kts | 163° |
| 2026-05-05 15:06 | 49.25523 | 8.50727 | 22491 ft | 390 kts | 153° |
| 2026-05-05 15:07 | 49.23191 | 8.52894 | 22753 ft | 393 kts | 149° |
| 2026-05-05 15:07 | 49.20875 | 8.55142 | 22849 ft | 396 kts | 149° |
| 2026-05-05 15:07 | 49.18514 | 8.57412 | 22860 ft | 409 kts | 149° |
| 2026-05-05 15:07 | 49.16062 | 8.59758 | 22853 ft | 423 kts | 150° |
| 2026-05-05 15:08 | 49.13432 | 8.61808 | 22869 ft | 426 kts | 158° |
| 2026-05-05 15:08 | 49.10941 | 8.63423 | 22851 ft | 428 kts | 158° |
| 2026-05-05 15:08 | 49.08202 | 8.65202 | 22853 ft | 429 kts | 158° |
| 2026-05-05 15:08 | 49.05460 | 8.66990 | 22861 ft | 429 kts | 158° |
| 2026-05-05 15:09 | 49.02714 | 8.68778 | 22857 ft | 429 kts | 158° |
| 2026-05-05 15:09 | 48.99974 | 8.70555 | 22855 ft | 429 kts | 158° |
| 2026-05-05 15:09 | 48.97229 | 8.72330 | 22860 ft | 429 kts | 158° |
| 2026-05-05 15:09 | 48.94478 | 8.74112 | 22860 ft | 430 kts | 158° |
| 2026-05-05 15:10 | 48.91929 | 8.75724 | 22851 ft | 431 kts | 161° |
| 2026-05-05 15:10 | 48.89036 | 8.76847 | 22847 ft | 429 kts | 172° |
| 2026-05-05 15:10 | 48.86091 | 8.77073 | 22844 ft | 427 kts | 183° |
| 2026-05-05 15:10 | 48.83148 | 8.76467 | 22852 ft | 427 kts | 190° |
| 2026-05-05 15:11 | 48.80232 | 8.75676 | 22859 ft | 426 kts | 189° |
| 2026-05-05 15:11 | 48.77314 | 8.74891 | 22851 ft | 425 kts | 189° |
| 2026-05-05 15:11 | 48.74451 | 8.74120 | 22851 ft | 425 kts | 190° |
| 2026-05-05 15:11 | 48.71540 | 8.73341 | 22840 ft | 425 kts | 189° |
| 2026-05-05 15:12 | 48.68625 | 8.72566 | 22832 ft | 425 kts | 189° |
| 2026-05-05 15:12 | 48.65751 | 8.71802 | 22855 ft | 409 kts | 190° |
| 2026-05-05 15:12 | 48.63000 | 8.71067 | 22869 ft | 397 kts | 190° |
| 2026-05-05 15:12 | 48.60307 | 8.70350 | 22623 ft | 389 kts | 190° |
| 2026-05-05 15:13 | 48.57663 | 8.69647 | 22350 ft | 385 kts | 190° |
| 2026-05-05 15:13 | 48.55034 | 8.68950 | 22085 ft | 383 kts | 190° |
| 2026-05-05 15:13 | 48.52418 | 8.68257 | 21808 ft | 379 kts | 190° |
| 2026-05-05 15:13 | 48.49846 | 8.67574 | 21399 ft | 373 kts | 190° |
| 2026-05-05 15:14 | 48.47298 | 8.66898 | 20969 ft | 369 kts | 190° |
| 2026-05-05 15:14 | 48.44818 | 8.66244 | 20532 ft | 365 kts | 190° |
| 2026-05-05 15:14 | 48.42333 | 8.65586 | 20092 ft | 361 kts | 190° |
| 2026-05-05 15:14 | 48.39868 | 8.64933 | 19648 ft | 358 kts | 190° |
| 2026-05-05 15:15 | 48.37423 | 8.64284 | 19157 ft | 356 kts | 191° |
| 2026-05-05 15:15 | 48.35002 | 8.63594 | 18685 ft | 353 kts | 192° |
| 2026-05-05 15:15 | 48.32592 | 8.62869 | 18193 ft | 352 kts | 192° |
| 2026-05-05 15:15 | 48.30199 | 8.62129 | 17654 ft | 350 kts | 192° |
| 2026-05-05 15:16 | 48.27824 | 8.61388 | 17152 ft | 348 kts | 192° |
| 2026-05-05 15:16 | 48.25460 | 8.60656 | 16647 ft | 346 kts | 193° |
| 2026-05-05 15:16 | 48.23114 | 8.59941 | 16150 ft | 343 kts | 193° |
| 2026-05-05 15:16 | 48.20775 | 8.59238 | 15661 ft | 341 kts | 193° |
| 2026-05-05 15:17 | 48.18455 | 8.58544 | 15174 ft | 340 kts | 193° |
| 2026-05-05 15:17 | 48.16143 | 8.57848 | 14683 ft | 339 kts | 193° |
| 2026-05-05 15:17 | 48.13823 | 8.57151 | 14126 ft | 340 kts | 193° |
| 2026-05-05 15:17 | 48.11497 | 8.56456 | 13555 ft | 341 kts | 194° |
| 2026-05-05 15:18 | 48.09181 | 8.55763 | 12985 ft | 339 kts | 194° |
| 2026-05-05 15:18 | 48.06876 | 8.55079 | 12445 ft | 336 kts | 194° |
| 2026-05-05 15:18 | 48.04594 | 8.54402 | 11908 ft | 333 kts | 194° |
| 2026-05-05 15:18 | 48.02331 | 8.53735 | 11376 ft | 330 kts | 194° |
| 2026-05-05 15:19 | 48.00093 | 8.53076 | 10849 ft | 327 kts | 194° |
| 2026-05-05 15:19 | 47.97872 | 8.52422 | 10387 ft | 323 kts | 194° |
| 2026-05-05 15:19 | 47.95719 | 8.51788 | 10259 ft | 308 kts | 194° |
| 2026-05-05 15:19 | 47.93678 | 8.51190 | 10134 ft | 290 kts | 194° |
| 2026-05-05 15:20 | 47.91752 | 8.50617 | 9965 ft | 277 kts | 194° |
| 2026-05-05 15:20 | 47.89885 | 8.50052 | 9654 ft | 272 kts | 195° |
| 2026-05-05 15:20 | 47.88033 | 8.49485 | 9258 ft | 271 kts | 195° |
| 2026-05-05 15:20 | 47.86193 | 8.48922 | 8866 ft | 269 kts | 195° |
| 2026-05-05 15:21 | 47.84364 | 8.48365 | 8478 ft | 268 kts | 195° |
| 2026-05-05 15:21 | 47.82549 | 8.47814 | 8099 ft | 265 kts | 195° |
| 2026-05-05 15:21 | 47.80759 | 8.47268 | 7772 ft | 261 kts | 195° |
| 2026-05-05 15:21 | 47.79000 | 8.46732 | 7440 ft | 256 kts | 195° |
| 2026-05-05 15:22 | 47.77263 | 8.46202 | 7120 ft | 253 kts | 195° |
| 2026-05-05 15:22 | 47.75564 | 8.45689 | 6801 ft | 245 kts | 195° |
| 2026-05-05 15:22 | 47.73920 | 8.45196 | 6486 ft | 237 kts | 195° |
| 2026-05-05 15:22 | 47.72333 | 8.44716 | 6169 ft | 228 kts | 196° |
| 2026-05-05 15:23 | 47.70849 | 8.44270 | 5851 ft | 222 kts | 195° |
| 2026-05-05 15:23 | 47.69403 | 8.43543 | 5510 ft | 218 kts | 208° |
| 2026-05-05 15:23 | 47.68150 | 8.42331 | 5239 ft | 213 kts | 222° |
| 2026-05-05 15:23 | 47.67125 | 8.40790 | 4989 ft | 208 kts | 229° |
| 2026-05-05 15:24 | 47.66149 | 8.39232 | 4737 ft | 205 kts | 228° |
| 2026-05-05 15:24 | 47.65180 | 8.37691 | 4490 ft | 203 kts | 229° |
| 2026-05-05 15:24 | 47.64212 | 8.36170 | 4228 ft | 202 kts | 226° |
| 2026-05-05 15:24 | 47.62982 | 8.35213 | 4040 ft | 202 kts | 192° |
| 2026-05-05 15:25 | 47.61621 | 8.35466 | 3998 ft | 199 kts | 159° |
| 2026-05-05 15:25 | 47.60516 | 8.36704 | 4004 ft | 200 kts | 140° |
| 2026-05-05 15:25 | 47.59503 | 8.38111 | 4010 ft | 199 kts | 140° |
| 2026-05-05 15:25 | 47.58495 | 8.39505 | 4024 ft | 194 kts | 140° |
| 2026-05-05 15:26 | 47.57535 | 8.40828 | 3912 ft | 188 kts | 141° |
| 2026-05-05 15:26 | 47.56578 | 8.42142 | 3667 ft | 187 kts | 141° |
| 2026-05-05 15:26 | 47.55639 | 8.43431 | 3427 ft | 181 kts | 140° |
| 2026-05-05 15:26 | 47.54732 | 8.44675 | 3201 ft | 176 kts | 141° |
| 2026-05-05 15:27 | 47.53864 | 8.45862 | 2977 ft | 175 kts | 140° |
| 2026-05-05 15:27 | 47.52998 | 8.47064 | 2804 ft | 162 kts | 140° |
| 2026-05-05 15:27 | 47.52216 | 8.48148 | 2593 ft | 149 kts | 141° |
| 2026-05-05 15:27 | 47.51460 | 8.49149 | 2356 ft | 142 kts | 143° |
| 2026-05-05 15:28 | 47.50754 | 8.50145 | 2103 ft | 139 kts | 144° |
| 2026-05-05 15:28 | 47.50044 | 8.51105 | 1937 ft | 137 kts | 141° |
| 2026-05-05 15:28 | 47.49346 | 8.52059 | 1748 ft | 136 kts | 142° |
| 2026-05-05 15:28 | 47.48641 | 8.53033 | 1585 ft | 141 kts | 143° |
| 2026-05-05 15:29 | 47.47926 | 8.54001 | 1411 ft | 135 kts | 142° |
| 2026-05-05 15:29 | 47.47334 | 8.54802 | 1390 ft | 92 kts | 137° |
| 2026-05-05 15:29 | 47.46917 | 8.55371 | 1391 ft | 72 kts | 137° |
| 2026-05-05 15:29 | 47.46608 | 8.55792 | 1396 ft | 43 kts | 139° |
| 2026-05-05 15:30 | 47.46379 | 8.55955 | 1403 ft | 26 kts | 166° |
| 2026-05-05 15:30 | 47.46240 | 8.56000 | 1406 ft | 19 kts | 171° |
| 2026-05-05 15:30 | 47.46115 | 8.55993 | 1410 ft | 18 kts | 186° |
| 2026-05-05 15:30 | 47.45992 | 8.55973 | 1406 ft | 19 kts | 186° |
| 2026-05-05 15:31 | 47.45873 | 8.55919 | 1414 ft | 13 kts | 200° |
| 2026-05-05 15:31 | 47.45826 | 8.55894 | 1413 ft | 0 kts | 200° |
| 2026-05-05 15:33 | 47.45823 | 8.55892 | 1410 ft | 2 kts | 200° |
| 2026-05-05 15:33 | 47.45795 | 8.55880 | 1412 ft | 9 kts | 192° |
| 2026-05-05 15:33 | 47.45704 | 8.55866 | 1409 ft | 16 kts | 186° |
| 2026-05-05 15:34 | 47.45594 | 8.55848 | 1409 ft | 16 kts | 186° |
| 2026-05-05 15:34 | 47.45506 | 8.55795 | 1407 ft | 14 kts | 256° |
| 2026-05-05 15:34 | 47.45514 | 8.55675 | 1407 ft | 8 kts | 276° |
| 2026-05-05 15:34 | 47.45490 | 8.55643 | 1408 ft | 8 kts | 191° |
| 2026-05-05 15:35 | 47.45448 | 8.55637 | 1407 ft | 3 kts | 186° |
| 2026-05-05 15:35 | 47.45432 | 8.55634 | 1408 ft | 1 kts | 186° |
| 2026-05-05 15:35 | 47.45428 | 8.55634 | 1407 ft | 0 kts | 186° |